Molino, Florida
Current Conditions -  °F | °C
As of 2:56 AM on Thursday 27 Nov 2014 (Local Time) from KNSE Reporting Station
Clear Clear  
Wind Chill: 43°   Ceiling: Unl
Heat Index: 46°   Visibility: 10mi
Dew Point: 40°   Wind: 6mph
Humidity: 79%   Direction: 300°WNW
Pressure: 30.25"   Gusts: NA
Location:  30.72°N, 87.31°W
Report Text: KNSE 270856Z AUTO 30005KT 10SM CLR 08/04 A3025 RMK AO2 SLP230 T00780044 53015 $
Loading
Personal Weather Stations






























Interactive Weather Map New forecast layout! Learn more

10-Day Weather Forecast

Advertisements
Track Severe Weather on mobile